createdAt,value
2019-04-26T00:02:45.535Z,137.70
2019-04-26T00:05:12.992Z,137.47
2019-04-26T00:07:43.744Z,135.37
2019-04-26T00:10:31.169Z,135.12
2019-04-26T00:13:08.004Z,135.97
2019-04-26T00:15:49.092Z,136.28
2019-04-26T00:18:16.746Z,135.48
2019-04-26T00:20:44.459Z,135.90
2019-04-26T00:23:12.059Z,137.00
2019-04-26T00:25:39.233Z,137.30
2019-04-26T00:28:06.409Z,137.40
2019-04-26T00:30:33.430Z,136.05
2019-04-26T00:33:00.925Z,136.65
2019-04-26T00:35:29.148Z,135.55
2019-04-26T00:37:56.355Z,135.78
2019-04-26T00:40:23.519Z,136.07
2019-04-26T00:42:51.557Z,136.18
2019-04-26T00:45:20.989Z,135.35
2019-04-26T00:47:49.827Z,137.22
2019-04-26T00:50:17.198Z,136.22
2019-04-26T00:52:45.128Z,135.32
2019-04-26T00:55:14.119Z,135.90
2019-04-26T00:57:41.545Z,135.18
2019-04-26T01:00:10.317Z,134.72
2019-04-26T01:02:42.999Z,134.55
2019-04-26T01:05:10.326Z,134.45
2019-04-26T01:07:37.874Z,135.05
2019-04-26T01:10:06.692Z,135.45
2019-04-26T01:12:34.060Z,135.05
2019-04-26T01:15:01.077Z,135.35
2019-04-26T01:17:28.201Z,135.82
2019-04-26T01:19:56.262Z,136.18
2019-04-26T01:22:27.643Z,134.50
2019-04-26T01:24:55.609Z,135.00
2019-04-26T01:27:26.396Z,135.22
2019-04-26T01:29:57.482Z,136.15
2019-04-26T01:32:26.545Z,135.65
2019-04-26T01:34:55.507Z,135.32
2019-04-26T01:37:26.687Z,136.00
2019-04-26T01:40:00.103Z,136.57
2019-04-26T01:42:50.120Z,135.97
2019-04-26T01:45:26.152Z,134.97
2019-04-26T01:47:57.033Z,136.05
2019-04-26T01:50:29.457Z,135.10
2019-04-26T01:52:58.323Z,135.00
2019-04-26T01:55:29.177Z,135.00
2019-04-26T01:57:59.165Z,135.10
2019-04-26T02:00:52.794Z,134.87
2019-04-26T02:03:24.373Z,134.75
2019-04-26T02:05:52.824Z,134.52
2019-04-26T02:08:19.886Z,135.28
2019-04-26T02:10:47.895Z,135.43
2019-04-26T02:13:16.124Z,134.90
2019-04-26T02:15:45.738Z,136.35
2019-04-26T02:18:14.994Z,134.95
2019-04-26T02:20:58.615Z,136.05
2019-04-26T02:23:34.323Z,135.80
2019-04-26T02:26:19.934Z,135.57
2019-04-26T02:28:48.623Z,136.00
2019-04-26T02:31:15.873Z,135.07
2019-04-26T02:33:43.157Z,136.25
2019-04-26T02:36:10.390Z,135.40
2019-04-26T02:38:37.741Z,135.43
2019-04-26T02:41:05.154Z,136.43
2019-04-26T02:43:35.836Z,135.75
2019-04-26T02:46:20.472Z,135.68
2019-04-26T02:49:19.274Z,135.68
2019-04-26T02:52:08.271Z,135.85
2019-04-26T02:54:44.482Z,135.60
2019-04-26T02:57:16.455Z,136.10
2019-04-26T02:59:47.149Z,136.52
2019-04-26T03:02:24.810Z,137.85
2019-04-26T03:04:56.695Z,135.90
2019-04-26T03:08:10.010Z,135.75
2019-04-26T03:10:44.174Z,135.48
2019-04-26T03:13:32.179Z,135.82
2019-04-26T03:16:25.189Z,137.55
2019-04-26T03:19:08.871Z,136.20
2019-04-26T03:21:55.343Z,135.93
2019-04-26T03:24:32.971Z,137.65
2019-04-26T03:27:43.591Z,137.18
2019-04-26T03:30:24.953Z,138.55
2019-04-26T03:33:39.861Z,138.03
2019-04-26T03:36:42.099Z,135.80
2019-04-26T03:39:30.304Z,135.95
2019-04-26T03:42:21.545Z,137.40
2019-04-26T03:45:10.272Z,137.32
2019-04-26T03:47:45.854Z,136.55
2019-04-26T03:50:18.713Z,136.75
2019-04-26T03:53:21.942Z,138.25
2019-04-26T03:56:51.190Z,137.37
2019-04-26T03:59:42.708Z,137.25
2019-04-26T04:02:31.476Z,138.35
2019-04-26T04:05:14.790Z,140.00
2019-04-26T04:07:47.864Z,139.07
2019-04-26T04:10:18.089Z,138.75
2019-04-26T04:13:09.895Z,138.37
2019-04-26T04:15:44.693Z,138.45
2019-04-26T04:18:20.420Z,139.15
2019-04-26T04:21:18.494Z,138.22
2019-04-26T04:24:04.257Z,138.60
2019-04-26T04:27:02.923Z,139.15
2019-04-26T04:30:25.663Z,140.28
2019-04-26T04:33:18.244Z,140.95
2019-04-26T04:35:52.912Z,139.97
2019-04-26T04:39:11.307Z,141.03
2019-04-26T04:41:45.062Z,139.45
2019-04-26T04:44:36.168Z,140.10
2019-04-26T04:47:32.344Z,138.47
2019-04-26T04:50:49.259Z,138.90
2019-04-26T04:53:41.441Z,140.50
2019-04-26T04:56:53.432Z,140.35
2019-04-26T04:59:28.662Z,139.43
2019-04-26T05:02:32.789Z,139.35
2019-04-26T05:05:22.220Z,141.12
2019-04-26T05:08:17.469Z,139.03
2019-04-26T05:11:01.878Z,139.82
2019-04-26T05:13:43.607Z,140.20
2019-04-26T05:16:51.207Z,139.55
2019-04-26T05:19:44.233Z,140.00
2019-04-26T05:22:37.755Z,141.73
2019-04-26T05:26:08.199Z,140.40
2019-04-26T05:29:01.578Z,138.55
2019-04-26T05:31:42.560Z,139.20
2019-04-26T05:34:53.161Z,139.32
2019-04-26T05:37:42.444Z,140.20
2019-04-26T05:40:35.981Z,140.40
2019-04-26T05:43:51.888Z,139.60
2019-04-26T05:47:06.121Z,139.45
2019-04-26T05:50:23.307Z,140.30
2019-04-26T05:53:09.899Z,138.62
2019-04-26T05:56:03.928Z,140.88
2019-04-26T05:58:51.177Z,137.55
2019-04-26T06:02:07.144Z,138.40
2019-04-26T06:05:07.298Z,139.55
2019-04-26T06:08:31.727Z,138.45
2019-04-26T06:11:07.305Z,138.28
2019-04-26T06:14:46.664Z,138.97
2019-04-26T06:18:15.210Z,139.22
2019-04-26T06:20:49.417Z,139.30
2019-04-26T06:24:09.768Z,139.88
2019-04-26T06:27:09.312Z,139.00
2019-04-26T06:29:35.278Z,141.30
2019-04-26T06:32:16.160Z,139.22
2019-04-26T06:35:22.418Z,140.35
2019-04-26T06:38:55.984Z,136.88
2019-04-26T06:42:05.684Z,137.92
2019-04-26T06:45:36.735Z,137.15
2019-04-26T06:49:01.979Z,137.70
2019-04-26T06:52:05.442Z,139.40
2019-04-26T06:55:05.411Z,138.25
2019-04-26T06:58:14.880Z,138.25
2019-04-26T07:01:03.830Z,137.95
2019-04-26T07:03:58.338Z,141.43
2019-04-26T07:06:36.788Z,140.57
2019-04-26T07:09:13.266Z,138.32
2019-04-26T07:12:21.311Z,140.10
2019-04-26T07:15:42.693Z,139.95
2019-04-26T07:18:35.559Z,139.57
2019-04-26T07:21:34.636Z,138.97
2019-04-26T07:24:56.632Z,138.62
2019-04-26T07:27:49.689Z,140.62
2019-04-26T07:30:45.637Z,138.97
2019-04-26T07:33:35.067Z,141.57
2019-04-26T07:36:21.224Z,140.62
2019-04-26T07:39:19.959Z,142.65
2019-04-26T07:42:36.124Z,140.65
2019-04-26T07:45:41.252Z,140.05
2019-04-26T07:48:33.895Z,138.92
2019-04-26T07:51:54.848Z,139.10
2019-04-26T07:54:53.179Z,139.03
2019-04-26T07:58:03.549Z,138.18
2019-04-26T08:00:45.136Z,139.60
2019-04-26T08:03:23.674Z,139.70
2019-04-26T08:06:11.564Z,137.30
2019-04-26T08:08:53.063Z,141.00
2019-04-26T08:11:29.820Z,140.18
2019-04-26T08:14:10.686Z,139.72
2019-04-26T08:16:58.573Z,139.70
2019-04-26T08:19:29.513Z,138.25
2019-04-26T08:22:11.480Z,138.80
2019-04-26T08:24:31.015Z,139.07
2019-04-26T08:27:18.899Z,141.73
2019-04-26T08:29:42.080Z,139.77
2019-04-26T08:32:23.005Z,140.30
2019-04-26T08:35:02.333Z,138.75
2019-04-26T08:37:44.369Z,140.65
2019-04-26T08:40:16.440Z,138.12
2019-04-26T08:42:53.330Z,139.97
2019-04-26T08:45:33.514Z,140.37
2019-04-26T08:48:22.356Z,139.52
2019-04-26T08:50:50.023Z,139.55
2019-04-26T08:53:17.841Z,140.43
2019-04-26T08:55:49.958Z,140.60
2019-04-26T08:58:21.006Z,139.60
2019-04-26T09:01:11.316Z,139.60
2019-04-26T09:03:45.871Z,138.95
2019-04-26T09:06:35.620Z,138.03
2019-04-26T09:09:14.319Z,139.47
2019-04-26T09:11:46.135Z,138.97
2019-04-26T09:14:13.984Z,140.25
2019-04-26T09:16:50.162Z,138.45
2019-04-26T09:19:12.247Z,139.12
2019-04-26T09:21:47.402Z,139.05
2019-04-26T09:24:32.951Z,138.43
2019-04-26T09:27:08.652Z,138.45
2019-04-26T09:29:54.579Z,138.35
2019-04-26T09:32:33.213Z,139.00
2019-04-26T09:35:00.404Z,139.18
2019-04-26T09:37:28.552Z,138.05
2019-04-26T09:39:56.013Z,136.75
2019-04-26T09:42:39.414Z,138.77
2019-04-26T09:45:24.806Z,136.82
2019-04-26T09:47:58.164Z,138.43
2019-04-26T09:50:59.739Z,138.62
2019-04-26T09:53:39.518Z,138.57
2019-04-26T09:56:07.554Z,139.22
2019-04-26T09:58:43.065Z,138.65
2019-04-26T10:01:11.876Z,141.25
2019-04-26T10:03:41.810Z,141.32
2019-04-26T10:06:09.774Z,140.95
2019-04-26T10:08:43.373Z,141.82
2019-04-26T10:11:15.054Z,138.55
2019-04-26T10:13:51.251Z,138.43
2019-04-26T10:16:28.776Z,138.55
2019-04-26T10:19:02.269Z,138.68
2019-04-26T10:21:31.566Z,137.43
2019-04-26T10:24:00.887Z,139.88
2019-04-26T10:26:29.830Z,138.92
2019-04-26T10:28:57.340Z,140.25
2019-04-26T10:31:24.431Z,138.32
2019-04-26T10:33:55.147Z,140.85
2019-04-26T10:36:26.277Z,139.05
2019-04-26T10:38:54.470Z,138.82
2019-04-26T10:41:21.599Z,141.88
2019-04-26T10:43:49.603Z,141.97
2019-04-26T10:46:16.841Z,141.32
2019-04-26T10:48:45.550Z,139.82
2019-04-26T10:51:18.929Z,140.32
2019-04-26T10:54:06.130Z,141.85
2019-04-26T10:56:42.094Z,140.22
2019-04-26T10:59:31.673Z,140.25
2019-04-26T11:01:58.718Z,141.47
2019-04-26T11:04:27.477Z,140.55
2019-04-26T11:06:54.577Z,140.75
2019-04-26T11:09:21.747Z,140.85
2019-04-26T11:11:50.503Z,140.95
2019-04-26T11:14:18.285Z,143.35
2019-04-26T11:16:52.933Z,140.68
2019-04-26T11:19:35.425Z,140.30
2019-04-26T11:22:28.354Z,140.60
2019-04-26T11:24:53.787Z,139.57
2019-04-26T11:27:36.231Z,140.47
2019-04-26T11:30:12.843Z,140.47
2019-04-26T11:33:00.040Z,142.68
2019-04-26T11:35:40.331Z,141.28
2019-04-26T11:38:35.683Z,140.12
2019-04-26T11:41:10.988Z,140.50
2019-04-26T11:43:58.387Z,141.37
2019-04-26T11:46:44.941Z,140.95
2019-04-26T11:49:23.534Z,139.50
2019-04-26T11:52:03.170Z,139.90
2019-04-26T11:54:55.156Z,141.05
2019-04-26T11:57:50.632Z,141.82
2019-04-26T12:00:33.561Z,140.73
2019-04-26T12:03:11.664Z,142.60
2019-04-26T12:06:00.476Z,141.92
2019-04-26T12:09:09.758Z,144.45
2019-04-26T12:11:49.029Z,141.35
2019-04-26T12:14:19.673Z,141.53
2019-04-26T12:16:48.060Z,141.45
2019-04-26T12:19:08.032Z,142.45
2019-04-26T12:21:37.237Z,141.53
2019-04-26T12:24:04.672Z,143.55
2019-04-26T12:26:42.535Z,141.18
2019-04-26T12:29:06.025Z,141.45
2019-04-26T12:31:35.992Z,142.35
2019-04-26T12:34:03.052Z,142.53
2019-04-26T12:36:30.195Z,142.00
2019-04-26T12:38:58.296Z,142.05
2019-04-26T12:41:39.798Z,141.43
2019-04-26T12:43:59.544Z,142.75
2019-04-26T12:46:38.208Z,141.55
2019-04-26T12:49:08.898Z,141.80
2019-04-26T12:51:38.271Z,144.15
2019-04-26T12:54:08.211Z,141.32
2019-04-26T12:56:35.810Z,141.30
2019-04-26T12:59:04.467Z,143.45
2019-04-26T13:01:31.842Z,142.47
2019-04-26T13:04:03.653Z,142.72
2019-04-26T13:06:35.351Z,140.40
2019-04-26T13:09:07.971Z,140.28
2019-04-26T13:11:59.543Z,141.70
2019-04-26T13:14:48.358Z,140.70
2019-04-26T13:17:24.618Z,140.52
2019-04-26T13:19:55.432Z,141.68
2019-04-26T13:22:23.054Z,142.70
2019-04-26T13:24:53.862Z,141.22
2019-04-26T13:27:21.015Z,143.22
2019-04-26T13:30:02.546Z,143.85
2019-04-26T13:32:26.856Z,143.93
2019-04-26T13:34:53.915Z,143.68
2019-04-26T13:37:22.219Z,143.20
2019-04-26T13:39:55.315Z,141.92
2019-04-26T13:42:22.875Z,140.85
2019-04-26T13:45:24.718Z,141.43
2019-04-26T13:48:14.653Z,138.92
2019-04-26T13:50:47.529Z,139.47
2019-04-26T13:53:14.610Z,140.22
2019-04-26T13:55:41.973Z,140.95
2019-04-26T13:58:09.212Z,141.25
2019-04-26T14:00:43.415Z,141.95
2019-04-26T14:03:09.866Z,143.15
2019-04-26T14:05:39.864Z,142.87
2019-04-26T14:08:07.145Z,144.55
2019-04-26T14:10:34.330Z,144.75
2019-04-26T14:13:02.530Z,144.82
2019-04-26T14:15:29.681Z,144.20
2019-04-26T14:18:00.218Z,142.20
2019-04-26T14:20:26.751Z,142.85
2019-04-26T14:23:11.396Z,143.55
2019-04-26T14:26:01.138Z,141.55
2019-04-26T14:28:27.707Z,142.47
2019-04-26T14:30:56.609Z,143.07
2019-04-26T14:33:27.089Z,142.18
2019-04-26T14:35:52.800Z,141.28
2019-04-26T14:38:27.702Z,141.22
2019-04-26T14:41:02.785Z,141.92
2019-04-26T14:43:23.459Z,141.43
2019-04-26T14:45:56.004Z,143.17
2019-04-26T14:48:20.949Z,140.62
2019-04-26T14:50:53.257Z,142.28
2019-04-26T14:53:20.128Z,143.32
2019-04-26T14:55:51.355Z,141.62
2019-04-26T14:58:23.836Z,142.20
2019-04-26T15:00:58.558Z,140.03
2019-04-26T15:03:30.981Z,142.53
2019-04-26T15:06:02.902Z,139.55
2019-04-26T15:08:32.146Z,140.90
2019-04-26T15:11:01.278Z,145.28
2019-04-26T15:13:28.076Z,141.65
2019-04-26T15:15:55.603Z,142.15
2019-04-26T15:18:23.660Z,142.47
2019-04-26T15:20:57.051Z,140.80
2019-04-26T15:23:23.856Z,142.00
2019-04-26T15:25:52.874Z,142.22
2019-04-26T15:28:22.030Z,144.25
2019-04-26T15:30:49.319Z,144.72
2019-04-26T15:33:16.436Z,141.90
2019-04-26T15:35:46.865Z,142.37
2019-04-26T15:38:16.251Z,141.75
2019-04-26T15:41:05.460Z,141.75
2019-04-26T15:43:46.816Z,142.62
2019-04-26T15:46:20.436Z,141.45
2019-04-26T15:49:13.120Z,141.35
2019-04-26T15:51:42.410Z,143.13
2019-04-26T15:54:09.734Z,140.37
2019-04-26T15:56:36.959Z,141.88
2019-04-26T15:59:04.386Z,141.22
2019-04-26T16:01:32.499Z,140.50
2019-04-26T16:03:59.864Z,143.90
2019-04-26T16:06:26.941Z,143.78
2019-04-26T16:08:53.984Z,143.02
2019-04-26T16:11:21.056Z,144.10
2019-04-26T16:13:54.249Z,143.02
2019-04-26T16:16:20.514Z,144.07
2019-04-26T16:18:49.852Z,142.72
2019-04-26T16:21:17.892Z,142.40
2019-04-26T16:23:50.947Z,143.57
2019-04-26T16:26:15.376Z,142.87
2019-04-26T16:28:49.639Z,142.82
2019-04-26T16:31:46.094Z,142.75
2019-04-26T16:34:15.313Z,141.62
2019-04-26T16:36:45.268Z,143.55
2019-04-26T16:39:14.554Z,142.40
2019-04-26T16:41:42.178Z,142.10
2019-04-26T16:44:10.511Z,143.93
2019-04-26T16:46:37.620Z,142.77
2019-04-26T16:49:11.589Z,143.10
2019-04-26T16:51:37.967Z,142.05
2019-04-26T16:54:10.810Z,143.87
2019-04-26T16:56:38.582Z,143.05
2019-04-26T16:59:06.812Z,144.65
2019-04-26T17:01:38.152Z,144.70
2019-04-26T17:04:04.694Z,142.32
2019-04-26T17:06:33.199Z,142.15
2019-04-26T17:09:01.583Z,142.43
2019-04-26T17:11:36.231Z,141.82
2019-04-26T17:14:04.372Z,142.13
2019-04-26T17:16:29.691Z,143.40
2019-04-26T17:18:59.528Z,143.22
2019-04-26T17:21:32.824Z,144.22
2019-04-26T17:24:22.428Z,142.00
2019-04-26T17:26:55.647Z,141.30
2019-04-26T17:29:22.879Z,140.82
2019-04-26T17:31:50.002Z,141.45
2019-04-26T17:34:22.533Z,140.80
2019-04-26T17:36:50.547Z,141.55
2019-04-26T17:39:18.288Z,142.28
2019-04-26T17:41:50.787Z,142.57
2019-04-26T17:44:21.821Z,142.85
2019-04-26T17:46:48.835Z,141.37
2019-04-26T17:49:16.228Z,141.60
2019-04-26T17:51:44.415Z,141.70
2019-04-26T17:54:26.586Z,142.10
2019-04-26T17:56:42.051Z,144.45
2019-04-26T17:59:30.274Z,142.90
2019-04-26T18:01:47.083Z,143.52
2019-04-26T18:04:11.276Z,143.47
2019-04-26T18:06:40.404Z,142.75
2019-04-26T18:09:13.245Z,142.07
2019-04-26T18:11:44.193Z,142.75
2019-04-26T18:14:21.076Z,146.93
2019-04-26T18:16:47.119Z,142.10
2019-04-26T18:19:36.560Z,141.03
2019-04-26T18:22:28.354Z,142.22
2019-04-26T18:24:55.555Z,141.07
2019-04-26T18:27:23.995Z,142.00
2019-04-26T18:29:53.155Z,142.22
2019-04-26T18:32:24.518Z,140.62
2019-04-26T18:34:53.669Z,142.13
2019-04-26T18:37:20.826Z,142.10
2019-04-26T18:39:47.854Z,141.18
2019-04-26T18:42:15.091Z,143.72
2019-04-26T18:44:47.973Z,140.95
2019-04-26T18:47:32.092Z,142.15
2019-04-26T18:49:59.367Z,140.52
2019-04-26T18:52:30.487Z,140.97
2019-04-26T18:55:03.916Z,143.80
2019-04-26T18:57:33.962Z,140.85
2019-04-26T19:00:07.064Z,141.10
2019-04-26T19:02:36.048Z,140.92
2019-04-26T19:05:13.267Z,143.02
2019-04-26T19:07:46.205Z,141.68
2019-04-26T19:10:16.056Z,143.00
2019-04-26T19:12:47.860Z,142.65
2019-04-26T19:15:26.004Z,139.60
2019-04-26T19:18:11.739Z,141.82
2019-04-26T19:20:54.269Z,140.50
2019-04-26T19:23:22.802Z,140.57
2019-04-26T19:25:55.316Z,142.03
2019-04-26T19:28:25.090Z,141.40
2019-04-26T19:30:54.875Z,141.28
2019-04-26T19:33:23.574Z,141.35
2019-04-26T19:35:53.966Z,143.20
2019-04-26T19:38:26.765Z,142.07
2019-04-26T19:41:03.560Z,141.80
2019-04-26T19:43:35.233Z,140.50
2019-04-26T19:46:21.733Z,140.00
2019-04-26T19:49:18.615Z,141.75
2019-04-26T19:52:28.523Z,141.15
2019-04-26T19:55:25.734Z,140.37
2019-04-26T19:57:59.054Z,139.03
2019-04-26T20:00:26.966Z,140.65
2019-04-26T20:02:54.164Z,139.18
2019-04-26T20:05:26.799Z,140.40
2019-04-26T20:08:05.989Z,139.52
2019-04-26T20:10:45.369Z,140.90
2019-04-26T20:13:34.137Z,140.20
2019-04-26T20:16:02.621Z,140.18
2019-04-26T20:21:34.329Z,140.95
2019-04-26T20:24:02.320Z,140.70
2019-04-26T20:26:31.484Z,139.28
2019-04-26T20:29:01.878Z,140.75
2019-04-26T20:31:47.387Z,140.95
2019-04-26T20:34:18.182Z,140.45
2019-04-26T20:36:48.467Z,140.95
2019-04-26T20:39:20.860Z,140.75
2019-04-26T20:42:00.972Z,141.75
2019-04-26T20:44:28.547Z,140.30
2019-04-26T20:46:55.997Z,142.32
2019-04-26T20:49:32.143Z,141.53
2019-04-26T20:52:09.127Z,142.65
2019-04-26T20:54:37.703Z,141.22
2019-04-26T20:57:08.799Z,142.87
2019-04-26T20:59:38.256Z,142.03
2019-04-26T21:02:08.090Z,140.73
2019-04-26T21:04:38.297Z,142.77
2019-04-26T21:07:06.765Z,142.87
2019-04-26T21:09:36.362Z,141.28
2019-04-26T21:12:17.015Z,142.37
2019-04-26T21:14:44.613Z,143.45
2019-04-26T21:17:11.542Z,142.90
2019-04-26T21:19:38.983Z,143.47
2019-04-26T21:22:07.564Z,142.90
2019-04-26T21:24:41.316Z,144.17
2019-04-26T21:27:31.774Z,144.30
2019-04-26T21:30:33.697Z,143.57
2019-04-26T21:33:28.599Z,143.45
2019-04-26T21:36:18.494Z,144.55
2019-04-26T21:38:53.479Z,143.57
2019-04-26T21:41:23.695Z,146.60
2019-04-26T21:43:54.847Z,145.97
2019-04-26T21:46:23.653Z,149.32
2019-04-26T21:48:57.425Z,147.57
2019-04-26T21:51:27.053Z,147.20
2019-04-26T21:53:57.655Z,146.02
2019-04-26T21:56:33.735Z,144.17
2019-04-26T21:59:04.418Z,144.80
2019-04-26T22:01:33.090Z,146.68
2019-04-26T22:04:05.868Z,143.93
2019-04-26T22:06:34.829Z,144.60
2019-04-26T22:09:32.442Z,142.98
2019-04-26T22:11:57.390Z,143.80
2019-04-26T22:14:29.873Z,145.25
2019-04-26T22:17:16.255Z,144.15
2019-04-26T22:19:50.346Z,143.32
2019-04-26T22:22:41.490Z,141.45
2019-04-26T22:25:13.269Z,142.80
2019-04-26T22:27:40.416Z,142.90
2019-04-26T22:30:16.206Z,143.60
2019-04-26T22:32:43.405Z,140.52
2019-04-26T22:35:19.831Z,141.82
2019-04-26T22:37:48.040Z,141.68
2019-04-26T22:40:19.547Z,140.45
2019-04-26T22:42:46.052Z,141.22
2019-04-26T22:45:19.495Z,142.62
2019-04-26T22:48:11.564Z,141.82
2019-04-26T22:50:38.122Z,140.50
2019-04-26T22:53:05.640Z,140.18
2019-04-26T22:55:33.441Z,141.50
2019-04-26T22:58:06.287Z,139.47
2019-04-26T23:00:37.980Z,140.88
2019-04-26T23:03:07.262Z,140.07
2019-04-26T23:05:39.107Z,139.82
2019-04-26T23:08:13.573Z,140.35
2019-04-26T23:10:48.047Z,141.37
2019-04-26T23:13:47.057Z,141.15
2019-04-26T23:16:34.455Z,140.50
2019-04-26T23:19:15.343Z,140.32
2019-04-26T23:21:52.981Z,142.25
2019-04-26T23:24:18.948Z,140.65
2019-04-26T23:26:45.720Z,140.85
2019-04-26T23:29:18.056Z,139.30
2019-04-26T23:31:44.681Z,140.35
2019-04-26T23:34:14.259Z,139.80
2019-04-26T23:36:43.542Z,140.90
2019-04-26T23:39:16.603Z,138.68
2019-04-26T23:41:44.604Z,139.15
2019-04-26T23:44:13.277Z,139.97
2019-04-26T23:46:40.583Z,140.00
2019-04-26T23:49:07.692Z,139.20
2019-04-26T23:51:38.187Z,139.77
2019-04-26T23:54:05.178Z,140.50
2019-04-26T23:56:34.831Z,140.05
2019-04-26T23:59:04.755Z,140.97
